sensor_id;sensor_type;location;lat;lon;timestamp;P1;durP1;ratioP1;P2;durP2;ratioP2
19187;SDS011;9726;52.198;8.792;2022-11-28T00:01:19;9.33;;;5.03;;
19187;SDS011;9726;52.198;8.792;2022-11-28T00:03:46;7.73;;;5.07;;
19187;SDS011;9726;52.198;8.792;2022-11-28T00:06:14;8.10;;;5.57;;
19187;SDS011;9726;52.198;8.792;2022-11-28T00:08:42;6.70;;;4.63;;
19187;SDS011;9726;52.198;8.792;2022-11-28T00:11:10;7.90;;;4.27;;
19187;SDS011;9726;52.198;8.792;2022-11-28T00:13:38;8.93;;;5.50;;
19187;SDS011;9726;52.198;8.792;2022-11-28T00:16:06;10.00;;;4.70;;
19187;SDS011;9726;52.198;8.792;2022-11-28T00:18:34;9.70;;;5.30;;
19187;SDS011;9726;52.198;8.792;2022-11-28T00:21:02;6.93;;;4.53;;
19187;SDS011;9726;52.198;8.792;2022-11-28T00:23:30;8.23;;;5.33;;
19187;SDS011;9726;52.198;8.792;2022-11-28T00:25:59;8.63;;;4.87;;
19187;SDS011;9726;52.198;8.792;2022-11-28T00:28:26;8.47;;;4.73;;
19187;SDS011;9726;52.198;8.792;2022-11-28T00:30:54;8.77;;;4.80;;
19187;SDS011;9726;52.198;8.792;2022-11-28T00:33:22;12.13;;;5.40;;
19187;SDS011;9726;52.198;8.792;2022-11-28T00:35:49;10.90;;;4.77;;
19187;SDS011;9726;52.198;8.792;2022-11-28T00:38:17;11.63;;;4.57;;
19187;SDS011;9726;52.198;8.792;2022-11-28T00:40:44;12.23;;;5.30;;
19187;SDS011;9726;52.198;8.792;2022-11-28T00:43:12;7.40;;;4.10;;
19187;SDS011;9726;52.198;8.792;2022-11-28T00:45:39;9.23;;;4.77;;
19187;SDS011;9726;52.198;8.792;2022-11-28T00:48:07;7.00;;;4.40;;
19187;SDS011;9726;52.198;8.792;2022-11-28T00:50:34;7.00;;;4.80;;
19187;SDS011;9726;52.198;8.792;2022-11-28T00:53:01;8.63;;;5.10;;
19187;SDS011;9726;52.198;8.792;2022-11-28T00:55:29;8.27;;;4.60;;
19187;SDS011;9726;52.198;8.792;2022-11-28T00:57:56;6.70;;;4.47;;
19187;SDS011;9726;52.198;8.792;2022-11-28T01:00:24;7.63;;;4.53;;
19187;SDS011;9726;52.198;8.792;2022-11-28T01:02:51;10.10;;;4.47;;
19187;SDS011;9726;52.198;8.792;2022-11-28T01:05:19;9.60;;;4.80;;
19187;SDS011;9726;52.198;8.792;2022-11-28T01:07:46;11.13;;;4.50;;
19187;SDS011;9726;52.198;8.792;2022-11-28T01:10:14;7.97;;;3.97;;
19187;SDS011;9726;52.198;8.792;2022-11-28T01:12:41;12.10;;;4.10;;
19187;SDS011;9726;52.198;8.792;2022-11-28T01:15:09;5.67;;;4.30;;
19187;SDS011;9726;52.198;8.792;2022-11-28T01:17:37;6.07;;;4.43;;
19187;SDS011;9726;52.198;8.792;2022-11-28T01:20:06;7.03;;;4.63;;
19187;SDS011;9726;52.198;8.792;2022-11-28T01:22:33;8.03;;;5.47;;
19187;SDS011;9726;52.198;8.792;2022-11-28T01:25:01;10.27;;;4.90;;
19187;SDS011;9726;52.198;8.792;2022-11-28T01:27:28;10.43;;;5.20;;
19187;SDS011;9726;52.198;8.792;2022-11-28T01:29:56;7.20;;;5.07;;
19187;SDS011;9726;52.198;8.792;2022-11-28T01:32:23;9.63;;;5.67;;
19187;SDS011;9726;52.198;8.792;2022-11-28T01:34:50;8.00;;;4.33;;
19187;SDS011;9726;52.198;8.792;2022-11-28T01:37:18;7.80;;;5.27;;
19187;SDS011;9726;52.198;8.792;2022-11-28T01:39:45;5.73;;;3.70;;
19187;SDS011;9726;52.198;8.792;2022-11-28T01:42:19;12.80;;;5.20;;
19187;SDS011;9726;52.198;8.792;2022-11-28T01:47:14;8.47;;;5.50;;
19187;SDS011;9726;52.198;8.792;2022-11-28T01:49:43;9.23;;;5.00;;
19187;SDS011;9726;52.198;8.792;2022-11-28T01:52:12;10.83;;;5.97;;
19187;SDS011;9726;52.198;8.792;2022-11-28T01:54:42;7.37;;;5.17;;
19187;SDS011;9726;52.198;8.792;2022-11-28T01:57:11;9.63;;;5.20;;
19187;SDS011;9726;52.198;8.792;2022-11-28T01:59:46;9.67;;;5.53;;
19187;SDS011;9726;52.198;8.792;2022-11-28T02:02:17;7.80;;;4.13;;
19187;SDS011;9726;52.198;8.792;2022-11-28T02:04:46;8.00;;;5.27;;
19187;SDS011;9726;52.198;8.792;2022-11-28T02:07:14;7.83;;;5.03;;
19187;SDS011;9726;52.198;8.792;2022-11-28T02:09:42;9.47;;;5.40;;
19187;SDS011;9726;52.198;8.792;2022-11-28T02:15:32;12.77;;;5.70;;
19187;SDS011;9726;52.198;8.792;2022-11-28T02:20:41;9.57;;;5.87;;
19187;SDS011;9726;52.198;8.792;2022-11-28T02:34:31;9.13;;;6.07;;
19187;SDS011;9726;52.198;8.792;2022-11-28T02:37:02;13.80;;;6.63;;
19187;SDS011;9726;52.198;8.792;2022-11-28T02:39:37;10.27;;;6.03;;
19187;SDS011;9726;52.198;8.792;2022-11-28T02:44:39;12.00;;;6.47;;
19187;SDS011;9726;52.198;8.792;2022-11-28T02:47:11;9.60;;;5.63;;
19187;SDS011;9726;52.198;8.792;2022-11-28T02:49:48;9.27;;;6.17;;
19187;SDS011;9726;52.198;8.792;2022-11-28T02:52:30;9.90;;;5.40;;
19187;SDS011;9726;52.198;8.792;2022-11-28T02:54:59;11.60;;;6.33;;
19187;SDS011;9726;52.198;8.792;2022-11-28T02:57:33;9.07;;;5.97;;
19187;SDS011;9726;52.198;8.792;2022-11-28T03:00:01;9.13;;;6.20;;
19187;SDS011;9726;52.198;8.792;2022-11-28T03:02:28;14.00;;;7.50;;
19187;SDS011;9726;52.198;8.792;2022-11-28T03:05:00;10.57;;;6.77;;
19187;SDS011;9726;52.198;8.792;2022-11-28T03:10:20;11.27;;;6.30;;
19187;SDS011;9726;52.198;8.792;2022-11-28T03:12:53;11.43;;;7.13;;
19187;SDS011;9726;52.198;8.792;2022-11-28T03:15:23;12.17;;;7.70;;
19187;SDS011;9726;52.198;8.792;2022-11-28T03:18:01;12.70;;;6.57;;
19187;SDS011;9726;52.198;8.792;2022-11-28T03:23:20;11.80;;;6.73;;
19187;SDS011;9726;52.198;8.792;2022-11-28T03:28:50;10.67;;;6.10;;
19187;SDS011;9726;52.198;8.792;2022-11-28T03:31:24;9.10;;;6.73;;
19187;SDS011;9726;52.198;8.792;2022-11-28T03:33:57;14.33;;;6.47;;
19187;SDS011;9726;52.198;8.792;2022-11-28T03:36:26;9.20;;;5.43;;
19187;SDS011;9726;52.198;8.792;2022-11-28T03:38:57;11.07;;;6.50;;
19187;SDS011;9726;52.198;8.792;2022-11-28T03:41:27;9.07;;;6.23;;
19187;SDS011;9726;52.198;8.792;2022-11-28T03:43:56;11.57;;;7.67;;
19187;SDS011;9726;52.198;8.792;2022-11-28T03:46:24;10.50;;;6.70;;
19187;SDS011;9726;52.198;8.792;2022-11-28T03:48:54;12.30;;;6.87;;
19187;SDS011;9726;52.198;8.792;2022-11-28T03:51:24;8.70;;;5.73;;
19187;SDS011;9726;52.198;8.792;2022-11-28T03:53:54;11.60;;;6.67;;
19187;SDS011;9726;52.198;8.792;2022-11-28T03:58:59;9.07;;;6.00;;
19187;SDS011;9726;52.198;8.792;2022-11-28T04:01:39;10.37;;;6.67;;
19187;SDS011;9726;52.198;8.792;2022-11-28T04:04:13;9.60;;;6.77;;
19187;SDS011;9726;52.198;8.792;2022-11-28T04:09:12;13.27;;;6.60;;
19187;SDS011;9726;52.198;8.792;2022-11-28T04:11:46;10.67;;;6.43;;
19187;SDS011;9726;52.198;8.792;2022-11-28T04:16:44;10.50;;;6.30;;
19187;SDS011;9726;52.198;8.792;2022-11-28T04:24:17;10.77;;;6.83;;
19187;SDS011;9726;52.198;8.792;2022-11-28T04:26:47;9.37;;;5.63;;
19187;SDS011;9726;52.198;8.792;2022-11-28T04:29:16;14.30;;;6.43;;
19187;SDS011;9726;52.198;8.792;2022-11-28T04:31:44;9.27;;;6.33;;
19187;SDS011;9726;52.198;8.792;2022-11-28T04:34:14;10.13;;;6.10;;
19187;SDS011;9726;52.198;8.792;2022-11-28T04:36:42;15.20;;;6.53;;
19187;SDS011;9726;52.198;8.792;2022-11-28T04:39:11;10.37;;;6.67;;
19187;SDS011;9726;52.198;8.792;2022-11-28T04:41:42;9.37;;;6.70;;
19187;SDS011;9726;52.198;8.792;2022-11-28T04:44:12;11.77;;;6.20;;
19187;SDS011;9726;52.198;8.792;2022-11-28T04:46:43;9.97;;;6.40;;
19187;SDS011;9726;52.198;8.792;2022-11-28T04:49:12;8.37;;;5.33;;
19187;SDS011;9726;52.198;8.792;2022-11-28T04:51:53;10.37;;;6.17;;
19187;SDS011;9726;52.198;8.792;2022-11-28T04:54:58;9.53;;;5.90;;
19187;SDS011;9726;52.198;8.792;2022-11-28T04:59:51;13.70;;;6.93;;
19187;SDS011;9726;52.198;8.792;2022-11-28T05:02:19;13.10;;;7.10;;
19187;SDS011;9726;52.198;8.792;2022-11-28T05:04:47;10.70;;;7.07;;
19187;SDS011;9726;52.198;8.792;2022-11-28T05:07:14;14.15;;;8.13;;
19187;SDS011;9726;52.198;8.792;2022-11-28T05:09:42;10.57;;;6.47;;
19187;SDS011;9726;52.198;8.792;2022-11-28T05:12:09;14.43;;;6.70;;
19187;SDS011;9726;52.198;8.792;2022-11-28T05:14:37;9.57;;;6.63;;
19187;SDS011;9726;52.198;8.792;2022-11-28T05:17:06;12.73;;;7.53;;
19187;SDS011;9726;52.198;8.792;2022-11-28T05:19:34;9.87;;;6.93;;
19187;SDS011;9726;52.198;8.792;2022-11-28T05:22:01;10.33;;;6.30;;
19187;SDS011;9726;52.198;8.792;2022-11-28T05:24:29;9.67;;;6.77;;
19187;SDS011;9726;52.198;8.792;2022-11-28T05:26:58;11.50;;;6.23;;
19187;SDS011;9726;52.198;8.792;2022-11-28T05:29:25;9.60;;;6.07;;
19187;SDS011;9726;52.198;8.792;2022-11-28T05:31:52;10.63;;;6.17;;
19187;SDS011;9726;52.198;8.792;2022-11-28T05:34:20;10.03;;;5.97;;
19187;SDS011;9726;52.198;8.792;2022-11-28T05:36:47;8.87;;;6.43;;
19187;SDS011;9726;52.198;8.792;2022-11-28T05:39:15;11.23;;;6.37;;
19187;SDS011;9726;52.198;8.792;2022-11-28T05:41:42;11.10;;;6.23;;
19187;SDS011;9726;52.198;8.792;2022-11-28T05:44:10;10.60;;;6.77;;
19187;SDS011;9726;52.198;8.792;2022-11-28T05:46:37;10.57;;;6.40;;
19187;SDS011;9726;52.198;8.792;2022-11-28T05:49:04;12.90;;;8.10;;
19187;SDS011;9726;52.198;8.792;2022-11-28T05:51:32;10.40;;;6.53;;
19187;SDS011;9726;52.198;8.792;2022-11-28T05:53:59;9.83;;;6.70;;
19187;SDS011;9726;52.198;8.792;2022-11-28T05:56:26;12.07;;;6.73;;
19187;SDS011;9726;52.198;8.792;2022-11-28T05:58:54;10.90;;;7.43;;
19187;SDS011;9726;52.198;8.792;2022-11-28T06:01:26;10.07;;;6.70;;
19187;SDS011;9726;52.198;8.792;2022-11-28T06:03:54;10.93;;;6.93;;
19187;SDS011;9726;52.198;8.792;2022-11-28T06:06:30;11.83;;;6.97;;
19187;SDS011;9726;52.198;8.792;2022-11-28T06:08:58;12.23;;;7.90;;
19187;SDS011;9726;52.198;8.792;2022-11-28T06:11:26;9.63;;;5.93;;
19187;SDS011;9726;52.198;8.792;2022-11-28T06:13:54;12.60;;;7.97;;
19187;SDS011;9726;52.198;8.792;2022-11-28T06:16:23;11.93;;;7.00;;
19187;SDS011;9726;52.198;8.792;2022-11-28T06:18:55;14.00;;;7.50;;
19187;SDS011;9726;52.198;8.792;2022-11-28T06:21:23;10.20;;;6.47;;
19187;SDS011;9726;52.198;8.792;2022-11-28T06:23:55;11.90;;;7.37;;
19187;SDS011;9726;52.198;8.792;2022-11-28T06:26:23;16.53;;;8.67;;
19187;SDS011;9726;52.198;8.792;2022-11-28T06:28:51;19.57;;;9.03;;
19187;SDS011;9726;52.198;8.792;2022-11-28T06:31:22;12.93;;;8.00;;
19187;SDS011;9726;52.198;8.792;2022-11-28T06:33:49;12.83;;;8.40;;
19187;SDS011;9726;52.198;8.792;2022-11-28T06:36:17;14.23;;;8.07;;
19187;SDS011;9726;52.198;8.792;2022-11-28T06:38:45;10.67;;;7.13;;
19187;SDS011;9726;52.198;8.792;2022-11-28T06:41:14;14.33;;;8.40;;
19187;SDS011;9726;52.198;8.792;2022-11-28T06:43:41;14.93;;;8.10;;
19187;SDS011;9726;52.198;8.792;2022-11-28T06:46:13;13.67;;;7.70;;
19187;SDS011;9726;52.198;8.792;2022-11-28T06:48:42;11.30;;;7.87;;
19187;SDS011;9726;52.198;8.792;2022-11-28T06:51:10;11.43;;;7.90;;
19187;SDS011;9726;52.198;8.792;2022-11-28T06:53:38;18.07;;;8.53;;
19187;SDS011;9726;52.198;8.792;2022-11-28T06:56:10;14.17;;;8.67;;
19187;SDS011;9726;52.198;8.792;2022-11-28T06:58:39;16.70;;;8.13;;
19187;SDS011;9726;52.198;8.792;2022-11-28T07:01:08;13.47;;;8.10;;
19187;SDS011;9726;52.198;8.792;2022-11-28T07:03:36;16.70;;;9.80;;
19187;SDS011;9726;52.198;8.792;2022-11-28T07:06:05;14.10;;;9.23;;
19187;SDS011;9726;52.198;8.792;2022-11-28T07:08:33;15.20;;;9.37;;
19187;SDS011;9726;52.198;8.792;2022-11-28T07:11:07;24.80;;;12.77;;
19187;SDS011;9726;52.198;8.792;2022-11-28T07:13:35;17.00;;;10.73;;
19187;SDS011;9726;52.198;8.792;2022-11-28T07:16:03;14.77;;;9.13;;
19187;SDS011;9726;52.198;8.792;2022-11-28T07:18:31;18.03;;;9.87;;
19187;SDS011;9726;52.198;8.792;2022-11-28T07:20:59;17.13;;;9.40;;
19187;SDS011;9726;52.198;8.792;2022-11-28T07:23:26;16.57;;;10.10;;
19187;SDS011;9726;52.198;8.792;2022-11-28T07:25:57;16.50;;;9.13;;
19187;SDS011;9726;52.198;8.792;2022-11-28T07:28:25;20.33;;;11.13;;
19187;SDS011;9726;52.198;8.792;2022-11-28T07:31:00;18.27;;;11.00;;
19187;SDS011;9726;52.198;8.792;2022-11-28T07:33:29;16.97;;;10.20;;
19187;SDS011;9726;52.198;8.792;2022-11-28T07:36:00;16.83;;;10.60;;
19187;SDS011;9726;52.198;8.792;2022-11-28T07:38:27;19.10;;;10.67;;
19187;SDS011;9726;52.198;8.792;2022-11-28T07:41:01;21.57;;;11.23;;
19187;SDS011;9726;52.198;8.792;2022-11-28T07:43:29;17.77;;;8.87;;
19187;SDS011;9726;52.198;8.792;2022-11-28T07:45:56;17.23;;;10.80;;
19187;SDS011;9726;52.198;8.792;2022-11-28T07:48:27;21.83;;;9.70;;
19187;SDS011;9726;52.198;8.792;2022-11-28T07:50:54;22.20;;;10.53;;
19187;SDS011;9726;52.198;8.792;2022-11-28T07:53:21;19.43;;;9.83;;
19187;SDS011;9726;52.198;8.792;2022-11-28T07:55:49;18.37;;;9.97;;
19187;SDS011;9726;52.198;8.792;2022-11-28T07:58:16;18.73;;;10.77;;
19187;SDS011;9726;52.198;8.792;2022-11-28T08:00:44;17.40;;;9.40;;
19187;SDS011;9726;52.198;8.792;2022-11-28T08:03:11;17.67;;;10.93;;
19187;SDS011;9726;52.198;8.792;2022-11-28T08:05:38;17.53;;;9.67;;
19187;SDS011;9726;52.198;8.792;2022-11-28T08:08:07;25.37;;;11.63;;
19187;SDS011;9726;52.198;8.792;2022-11-28T08:10:34;21.13;;;10.73;;
19187;SDS011;9726;52.198;8.792;2022-11-28T08:13:02;19.47;;;10.60;;
19187;SDS011;9726;52.198;8.792;2022-11-28T08:15:29;18.17;;;10.70;;
19187;SDS011;9726;52.198;8.792;2022-11-28T08:17:57;16.60;;;10.47;;
19187;SDS011;9726;52.198;8.792;2022-11-28T08:20:25;21.93;;;11.27;;
19187;SDS011;9726;52.198;8.792;2022-11-28T08:22:52;18.77;;;10.23;;
19187;SDS011;9726;52.198;8.792;2022-11-28T08:25:19;22.17;;;11.13;;
19187;SDS011;9726;52.198;8.792;2022-11-28T08:27:47;20.83;;;10.97;;
19187;SDS011;9726;52.198;8.792;2022-11-28T08:30:15;16.83;;;10.80;;
19187;SDS011;9726;52.198;8.792;2022-11-28T08:32:42;22.57;;;10.67;;
19187;SDS011;9726;52.198;8.792;2022-11-28T08:35:09;23.47;;;12.03;;
19187;SDS011;9726;52.198;8.792;2022-11-28T08:37:37;21.50;;;12.63;;
19187;SDS011;9726;52.198;8.792;2022-11-28T08:40:04;19.70;;;11.63;;
19187;SDS011;9726;52.198;8.792;2022-11-28T08:42:32;17.20;;;10.30;;
19187;SDS011;9726;52.198;8.792;2022-11-28T08:44:59;23.90;;;12.10;;
19187;SDS011;9726;52.198;8.792;2022-11-28T08:47:27;20.70;;;12.03;;
19187;SDS011;9726;52.198;8.792;2022-11-28T08:49:54;21.93;;;11.87;;
19187;SDS011;9726;52.198;8.792;2022-11-28T08:52:22;19.47;;;11.87;;
19187;SDS011;9726;52.198;8.792;2022-11-28T08:54:49;19.67;;;11.80;;
19187;SDS011;9726;52.198;8.792;2022-11-28T08:57:17;19.33;;;11.43;;
19187;SDS011;9726;52.198;8.792;2022-11-28T08:59:44;23.80;;;11.77;;
19187;SDS011;9726;52.198;8.792;2022-11-28T09:02:12;21.90;;;12.10;;
19187;SDS011;9726;52.198;8.792;2022-11-28T09:04:39;19.10;;;11.73;;
19187;SDS011;9726;52.198;8.792;2022-11-28T09:07:07;18.87;;;12.17;;
19187;SDS011;9726;52.198;8.792;2022-11-28T09:09:34;23.87;;;12.30;;
19187;SDS011;9726;52.198;8.792;2022-11-28T09:12:01;25.00;;;11.73;;
19187;SDS011;9726;52.198;8.792;2022-11-28T09:14:29;26.73;;;12.10;;
19187;SDS011;9726;52.198;8.792;2022-11-28T09:16:57;24.10;;;15.00;;
19187;SDS011;9726;52.198;8.792;2022-11-28T09:19:24;21.67;;;10.33;;
19187;SDS011;9726;52.198;8.792;2022-11-28T09:21:52;21.50;;;11.47;;
19187;SDS011;9726;52.198;8.792;2022-11-28T09:24:23;23.17;;;12.33;;
19187;SDS011;9726;52.198;8.792;2022-11-28T09:26:50;19.37;;;11.50;;
19187;SDS011;9726;52.198;8.792;2022-11-28T09:29:18;29.27;;;13.83;;
19187;SDS011;9726;52.198;8.792;2022-11-28T09:31:45;20.87;;;11.77;;
19187;SDS011;9726;52.198;8.792;2022-11-28T09:34:13;21.30;;;12.03;;
19187;SDS011;9726;52.198;8.792;2022-11-28T09:36:40;20.10;;;11.97;;
19187;SDS011;9726;52.198;8.792;2022-11-28T09:39:08;27.80;;;12.50;;
19187;SDS011;9726;52.198;8.792;2022-11-28T09:46:43;28.43;;;12.40;;
19187;SDS011;9726;52.198;8.792;2022-11-28T09:49:58;19.43;;;11.97;;
19187;SDS011;9726;52.198;8.792;2022-11-28T09:54:42;19.83;;;12.50;;
19187;SDS011;9726;52.198;8.792;2022-11-28T09:57:12;19.43;;;12.60;;
19187;SDS011;9726;52.198;8.792;2022-11-28T09:59:42;19.20;;;12.47;;
19187;SDS011;9726;52.198;8.792;2022-11-28T10:13:26;20.40;;;12.87;;
19187;SDS011;9726;52.198;8.792;2022-11-28T10:18:49;22.37;;;12.93;;
19187;SDS011;9726;52.198;8.792;2022-11-28T10:23:52;24.67;;;13.43;;
19187;SDS011;9726;52.198;8.792;2022-11-28T10:26:35;24.73;;;13.47;;
19187;SDS011;9726;52.198;8.792;2022-11-28T10:29:11;20.63;;;13.17;;
19187;SDS011;9726;52.198;8.792;2022-11-28T10:31:45;25.60;;;13.53;;
19187;SDS011;9726;52.198;8.792;2022-11-28T10:39:09;23.77;;;12.50;;
19187;SDS011;9726;52.198;8.792;2022-11-28T10:41:39;21.53;;;12.30;;
19187;SDS011;9726;52.198;8.792;2022-11-28T10:44:11;22.00;;;12.70;;
19187;SDS011;9726;52.198;8.792;2022-11-28T10:49:42;25.17;;;11.87;;
19187;SDS011;9726;52.198;8.792;2022-11-28T10:52:19;21.33;;;11.67;;
19187;SDS011;9726;52.198;8.792;2022-11-28T11:00:04;21.07;;;11.37;;
19187;SDS011;9726;52.198;8.792;2022-11-28T11:02:36;20.80;;;11.00;;
19187;SDS011;9726;52.198;8.792;2022-11-28T11:05:04;19.80;;;11.07;;
19187;SDS011;9726;52.198;8.792;2022-11-28T11:07:32;19.83;;;11.97;;
19187;SDS011;9726;52.198;8.792;2022-11-28T11:10:14;22.27;;;12.57;;
19187;SDS011;9726;52.198;8.792;2022-11-28T11:12:42;23.27;;;12.63;;
19187;SDS011;9726;52.198;8.792;2022-11-28T11:15:22;26.97;;;13.33;;
19187;SDS011;9726;52.198;8.792;2022-11-28T11:17:49;25.40;;;11.90;;
19187;SDS011;9726;52.198;8.792;2022-11-28T11:20:23;20.83;;;11.40;;
19187;SDS011;9726;52.198;8.792;2022-11-28T11:22:55;21.20;;;11.83;;
19187;SDS011;9726;52.198;8.792;2022-11-28T11:25:23;21.53;;;11.83;;
19187;SDS011;9726;52.198;8.792;2022-11-28T11:27:56;20.03;;;11.97;;
19187;SDS011;9726;52.198;8.792;2022-11-28T11:30:30;20.63;;;10.77;;
19187;SDS011;9726;52.198;8.792;2022-11-28T11:32:59;23.80;;;11.60;;
19187;SDS011;9726;52.198;8.792;2022-11-28T11:35:28;24.63;;;12.93;;
19187;SDS011;9726;52.198;8.792;2022-11-28T11:38:21;18.27;;;10.40;;
19187;SDS011;9726;52.198;8.792;2022-11-28T11:40:44;23.40;;;12.33;;
19187;SDS011;9726;52.198;8.792;2022-11-28T11:43:30;22.17;;;12.47;;
19187;SDS011;9726;52.198;8.792;2022-11-28T11:46:12;19.03;;;12.00;;
19187;SDS011;9726;52.198;8.792;2022-11-28T11:48:44;16.73;;;10.27;;
19187;SDS011;9726;52.198;8.792;2022-11-28T11:56:41;18.20;;;10.90;;
19187;SDS011;9726;52.198;8.792;2022-11-28T11:59:11;18.80;;;11.43;;
19187;SDS011;9726;52.198;8.792;2022-11-28T12:01:41;18.10;;;11.07;;
19187;SDS011;9726;52.198;8.792;2022-11-28T12:04:14;20.37;;;10.23;;
19187;SDS011;9726;52.198;8.792;2022-11-28T12:07:03;22.67;;;11.97;;
19187;SDS011;9726;52.198;8.792;2022-11-28T12:09:37;17.93;;;10.93;;
19187;SDS011;9726;52.198;8.792;2022-11-28T12:12:16;21.97;;;11.30;;
19187;SDS011;9726;52.198;8.792;2022-11-28T12:14:46;17.30;;;10.83;;
19187;SDS011;9726;52.198;8.792;2022-11-28T12:17:23;20.10;;;10.33;;
19187;SDS011;9726;52.198;8.792;2022-11-28T12:23:18;19.10;;;10.63;;
19187;SDS011;9726;52.198;8.792;2022-11-28T12:35:41;23.20;;;12.63;;
19187;SDS011;9726;52.198;8.792;2022-11-28T12:40:42;17.47;;;10.30;;
19187;SDS011;9726;52.198;8.792;2022-11-28T12:51:02;15.13;;;9.97;;
19187;SDS011;9726;52.198;8.792;2022-11-28T12:56:38;15.07;;;10.00;;
19187;SDS011;9726;52.198;8.792;2022-11-28T12:59:12;17.50;;;10.97;;
19187;SDS011;9726;52.198;8.792;2022-11-28T13:07:23;19.20;;;10.90;;
19187;SDS011;9726;52.198;8.792;2022-11-28T13:10:18;21.37;;;10.27;;
19187;SDS011;9726;52.198;8.792;2022-11-28T13:12:46;19.83;;;10.73;;
19187;SDS011;9726;52.198;8.792;2022-11-28T13:15:24;19.73;;;11.53;;
19187;SDS011;9726;52.198;8.792;2022-11-28T13:18:01;17.70;;;11.07;;
19187;SDS011;9726;52.198;8.792;2022-11-28T13:23:06;19.43;;;11.60;;
19187;SDS011;9726;52.198;8.792;2022-11-28T13:26:00;19.40;;;11.17;;
19187;SDS011;9726;52.198;8.792;2022-11-28T13:29:01;24.37;;;11.03;;
19187;SDS011;9726;52.198;8.792;2022-11-28T13:33:50;17.77;;;11.43;;
19187;SDS011;9726;52.198;8.792;2022-11-28T13:36:20;18.90;;;10.97;;
19187;SDS011;9726;52.198;8.792;2022-11-28T13:39:17;19.90;;;11.40;;
19187;SDS011;9726;52.198;8.792;2022-11-28T13:47:41;21.83;;;11.83;;
19187;SDS011;9726;52.198;8.792;2022-11-28T13:58:19;20.70;;;11.70;;
19187;SDS011;9726;52.198;8.792;2022-11-28T14:01:02;21.37;;;11.90;;
19187;SDS011;9726;52.198;8.792;2022-11-28T14:03:31;18.23;;;11.27;;
19187;SDS011;9726;52.198;8.792;2022-11-28T14:06:01;18.63;;;11.80;;
19187;SDS011;9726;52.198;8.792;2022-11-28T14:08:34;27.10;;;13.00;;
19187;SDS011;9726;52.198;8.792;2022-11-28T14:11:22;18.57;;;12.20;;
19187;SDS011;9726;52.198;8.792;2022-11-28T14:14:05;23.03;;;12.03;;
19187;SDS011;9726;52.198;8.792;2022-11-28T14:16:39;23.43;;;13.27;;
19187;SDS011;9726;52.198;8.792;2022-11-28T14:19:21;24.37;;;12.97;;
19187;SDS011;9726;52.198;8.792;2022-11-28T14:21:53;28.30;;;12.40;;
19187;SDS011;9726;52.198;8.792;2022-11-28T14:27:00;23.07;;;12.90;;
19187;SDS011;9726;52.198;8.792;2022-11-28T14:29:38;23.83;;;12.87;;
19187;SDS011;9726;52.198;8.792;2022-11-28T14:32:06;21.93;;;13.13;;
19187;SDS011;9726;52.198;8.792;2022-11-28T14:34:57;25.47;;;12.13;;
19187;SDS011;9726;52.198;8.792;2022-11-28T14:39:55;22.87;;;12.83;;
19187;SDS011;9726;52.198;8.792;2022-11-28T14:46:03;23.93;;;12.83;;
19187;SDS011;9726;52.198;8.792;2022-11-28T14:48:17;19.40;;;12.20;;
19187;SDS011;9726;52.198;8.792;2022-11-28T14:50:47;18.23;;;11.60;;
19187;SDS011;9726;52.198;8.792;2022-11-28T14:58:46;18.57;;;11.30;;
19187;SDS011;9726;52.198;8.792;2022-11-28T15:01:15;20.80;;;11.93;;
19187;SDS011;9726;52.198;8.792;2022-11-28T15:03:49;20.73;;;11.90;;
19187;SDS011;9726;52.198;8.792;2022-11-28T15:06:28;24.90;;;13.73;;
19187;SDS011;9726;52.198;8.792;2022-11-28T15:09:05;23.77;;;12.80;;
19187;SDS011;9726;52.198;8.792;2022-11-28T15:11:56;22.50;;;12.30;;
19187;SDS011;9726;52.198;8.792;2022-11-28T15:14:28;18.53;;;11.90;;
19187;SDS011;9726;52.198;8.792;2022-11-28T15:17:04;21.30;;;13.00;;
19187;SDS011;9726;52.198;8.792;2022-11-28T15:19:43;20.67;;;12.50;;
19187;SDS011;9726;52.198;8.792;2022-11-28T15:22:27;30.77;;;14.60;;
19187;SDS011;9726;52.198;8.792;2022-11-28T15:24:56;23.60;;;14.60;;
19187;SDS011;9726;52.198;8.792;2022-11-28T15:27:24;23.73;;;14.00;;
19187;SDS011;9726;52.198;8.792;2022-11-28T15:29:53;26.07;;;14.17;;
19187;SDS011;9726;52.198;8.792;2022-11-28T15:32:22;22.57;;;14.00;;
19187;SDS011;9726;52.198;8.792;2022-11-28T15:34:51;27.80;;;14.13;;
19187;SDS011;9726;52.198;8.792;2022-11-28T15:37:27;24.47;;;13.43;;
19187;SDS011;9726;52.198;8.792;2022-11-28T15:39:55;24.27;;;13.97;;
19187;SDS011;9726;52.198;8.792;2022-11-28T15:42:24;23.53;;;14.40;;
19187;SDS011;9726;52.198;8.792;2022-11-28T15:44:57;29.87;;;14.40;;
19187;SDS011;9726;52.198;8.792;2022-11-28T15:47:25;26.50;;;15.87;;
19187;SDS011;9726;52.198;8.792;2022-11-28T15:50:36;30.57;;;16.63;;
19187;SDS011;9726;52.198;8.792;2022-11-28T15:55:25;34.10;;;16.70;;
19187;SDS011;9726;52.198;8.792;2022-11-28T16:00:42;30.67;;;16.53;;
19187;SDS011;9726;52.198;8.792;2022-11-28T16:03:12;32.23;;;17.20;;
19187;SDS011;9726;52.198;8.792;2022-11-28T16:05:42;36.50;;;14.97;;
19187;SDS011;9726;52.198;8.792;2022-11-28T16:08:44;28.37;;;15.77;;
19187;SDS011;9726;52.198;8.792;2022-11-28T16:11:06;29.77;;;15.97;;
19187;SDS011;9726;52.198;8.792;2022-11-28T16:13:38;28.60;;;16.83;;
19187;SDS011;9726;52.198;8.792;2022-11-28T16:16:08;29.63;;;17.53;;
19187;SDS011;9726;52.198;8.792;2022-11-28T16:18:42;25.90;;;16.40;;
19187;SDS011;9726;52.198;8.792;2022-11-28T16:21:12;36.83;;;15.33;;
19187;SDS011;9726;52.198;8.792;2022-11-28T16:23:40;32.53;;;17.03;;
19187;SDS011;9726;52.198;8.792;2022-11-28T16:28:58;39.10;;;17.87;;
19187;SDS011;9726;52.198;8.792;2022-11-28T16:31:26;32.73;;;18.00;;
19187;SDS011;9726;52.198;8.792;2022-11-28T16:33:55;34.57;;;18.90;;
19187;SDS011;9726;52.198;8.792;2022-11-28T16:38:51;36.03;;;19.83;;
19187;SDS011;9726;52.198;8.792;2022-11-28T16:41:22;28.30;;;16.87;;
19187;SDS011;9726;52.198;8.792;2022-11-28T16:43:55;43.23;;;20.40;;
19187;SDS011;9726;52.198;8.792;2022-11-28T16:46:31;36.17;;;19.50;;
19187;SDS011;9726;52.198;8.792;2022-11-28T16:48:59;39.03;;;19.60;;
19187;SDS011;9726;52.198;8.792;2022-11-28T16:51:28;40.93;;;20.50;;
19187;SDS011;9726;52.198;8.792;2022-11-28T16:53:58;32.70;;;18.13;;
19187;SDS011;9726;52.198;8.792;2022-11-28T17:01:27;35.43;;;18.10;;
19187;SDS011;9726;52.198;8.792;2022-11-28T17:03:54;32.07;;;17.87;;
19187;SDS011;9726;52.198;8.792;2022-11-28T17:06:30;29.23;;;16.43;;
19187;SDS011;9726;52.198;8.792;2022-11-28T17:09:03;34.23;;;17.60;;
19187;SDS011;9726;52.198;8.792;2022-11-28T17:11:32;28.50;;;16.70;;
19187;SDS011;9726;52.198;8.792;2022-11-28T17:14:02;34.13;;;17.77;;
19187;SDS011;9726;52.198;8.792;2022-11-28T17:16:39;30.90;;;17.73;;
19187;SDS011;9726;52.198;8.792;2022-11-28T17:19:07;34.17;;;16.80;;
19187;SDS011;9726;52.198;8.792;2022-11-28T17:24:02;53.33;;;21.53;;
19187;SDS011;9726;52.198;8.792;2022-11-28T17:26:30;35.87;;;20.30;;
19187;SDS011;9726;52.198;8.792;2022-11-28T17:28:57;34.27;;;18.77;;
19187;SDS011;9726;52.198;8.792;2022-11-28T17:31:25;35.20;;;18.70;;
19187;SDS011;9726;52.198;8.792;2022-11-28T17:33:53;30.83;;;17.40;;
19187;SDS011;9726;52.198;8.792;2022-11-28T17:36:20;33.73;;;16.80;;
19187;SDS011;9726;52.198;8.792;2022-11-28T17:38:48;34.20;;;18.17;;
19187;SDS011;9726;52.198;8.792;2022-11-28T17:41:15;30.63;;;18.00;;
19187;SDS011;9726;52.198;8.792;2022-11-28T17:43:43;29.70;;;18.13;;
19187;SDS011;9726;52.198;8.792;2022-11-28T17:46:12;34.83;;;19.70;;
19187;SDS011;9726;52.198;8.792;2022-11-28T17:48:39;32.13;;;18.83;;
19187;SDS011;9726;52.198;8.792;2022-11-28T17:51:08;35.10;;;19.00;;
19187;SDS011;9726;52.198;8.792;2022-11-28T17:53:36;36.53;;;19.00;;
19187;SDS011;9726;52.198;8.792;2022-11-28T17:56:04;29.67;;;18.37;;